Time;durP1;ratioP1;P1;durP2;ratioP2;P2;SDS_P1;SDS_P2;PMS_P1;PMS_P2;Temp;Humidity;BMP_temperature;BMP_pressure;BME280_temperature;BME280_humidity;BME280_pressure;Samples;Min_cycle;Max_cycle;Signal;HPM_P1;HPM_P2
2021/06/26 00:01:50;;;;;;;9.57;5.50;;;17.50;72.30;;;;;;5075964;28;20013;-76
2021/06/26 00:04:16;;;;;;;13.60;6.78;;;17.50;72.00;;;;;;5078447;28;20029;-75
2021/06/26 00:06:42;;;;;;;12.13;6.55;;;17.40;72.00;;;;;;5077323;28;20056;-74
2021/06/26 00:09:07;;;;;;;12.00;6.90;;;17.40;72.00;;;;;;5073231;28;20056;-75
2021/06/26 00:11:33;;;;;;;13.18;6.25;;;17.40;71.90;;;;;;5076228;28;20084;-75
2021/06/26 00:13:59;;;;;;;12.73;5.60;;;17.40;71.80;;;;;;5077090;28;20024;-75
2021/06/26 00:16:25;;;;;;;9.80;5.50;;;17.40;71.90;;;;;;5076182;28;20526;-74
2021/06/26 00:18:51;;;;;;;12.43;5.38;;;17.40;71.80;;;;;;5076716;28;20334;-76
2021/06/26 00:21:17;;;;;;;12.80;6.03;;;17.40;71.80;;;;;;5078310;28;20013;-74
2021/06/26 00:23:43;;;;;;;10.25;5.85;;;17.40;71.90;;;;;;5077938;28;20019;-75
2021/06/26 00:26:09;;;;;;;12.55;5.88;;;17.40;71.90;;;;;;5072145;28;20638;-74
2021/06/26 00:28:35;;;;;;;11.23;5.78;;;17.40;71.90;;;;;;5076676;28;20020;-76
2021/06/26 00:31:01;;;;;;;11.52;6.53;;;17.40;71.90;;;;;;5077445;28;20099;-77
2021/06/26 00:33:27;;;;;;;11.32;6.10;;;17.40;71.90;;;;;;5075392;28;20633;-73
2021/06/26 00:35:53;;;;;;;11.00;4.97;;;17.30;72.00;;;;;;5078175;28;20130;-74
2021/06/26 00:38:19;;;;;;;12.93;6.78;;;17.30;71.90;;;;;;5076237;28;20029;-73
2021/06/26 00:40:44;;;;;;;10.15;5.55;;;17.30;71.90;;;;;;5075970;28;20047;-72
2021/06/26 00:43:10;;;;;;;17.85;9.90;;;17.30;72.00;;;;;;5076374;28;20082;-75
2021/06/26 00:45:36;;;;;;;35.80;19.45;;;17.30;72.00;;;;;;5077647;28;20067;-78
2021/06/26 00:48:02;;;;;;;27.67;14.02;;;17.30;72.00;;;;;;5075905;28;20032;-75
2021/06/26 00:50:30;;;;;;;17.33;9.68;;;17.30;72.00;;;;;;5077517;28;20036;-75
2021/06/26 00:52:56;;;;;;;13.27;7.90;;;17.30;72.20;;;;;;5076337;28;20033;-74
2021/06/26 00:55:22;;;;;;;14.80;6.80;;;17.30;72.40;;;;;;5075602;28;20502;-73
2021/06/26 00:57:54;;;;;;;13.07;6.93;;;17.30;72.30;;;;;;5077524;28;20034;-74
2021/06/26 01:00:21;;;;;;;10.90;6.28;;;17.30;72.10;;;;;;5072665;28;20399;-74
2021/06/26 01:02:47;;;;;;;13.35;6.80;;;17.30;72.10;;;;;;5076029;28;20021;-77
2021/06/26 01:05:13;;;;;;;11.60;6.30;;;17.30;72.10;;;;;;5075640;28;20086;-77
2021/06/26 01:07:39;;;;;;;10.48;5.80;;;17.30;72.10;;;;;;5077720;28;20020;-76
2021/06/26 01:10:07;;;;;;;9.50;5.20;;;17.30;72.00;;;;;;5077616;28;20028;-74
2021/06/26 01:12:33;;;;;;;11.13;6.00;;;17.20;71.90;;;;;;5076104;28;20032;-75
2021/06/26 01:14:59;;;;;;;10.15;6.25;;;17.30;72.00;;;;;;5077239;28;20479;-75
2021/06/26 01:17:24;;;;;;;12.73;6.40;;;17.20;72.70;;;;;;5075945;28;20090;-75
2021/06/26 01:19:51;;;;;;;10.45;6.28;;;17.20;72.20;;;;;;5075944;28;20021;-73
2021/06/26 01:22:22;;;;;;;10.00;5.15;;;17.20;72.20;;;;;;5075485;28;20495;-75
2021/06/26 01:24:53;;;;;;;10.88;6.38;;;17.20;72.50;;;;;;5076636;28;20481;-75
2021/06/26 01:27:19;;;;;;;10.73;5.75;;;17.20;72.20;;;;;;5076058;28;20088;-74
2021/06/26 01:29:49;;;;;;;11.73;5.85;;;17.20;72.30;;;;;;5069379;28;20052;-76
2021/06/26 01:32:17;;;;;;;10.82;5.80;;;17.20;72.20;;;;;;5076520;28;20021;-76
2021/06/26 01:34:43;;;;;;;12.23;5.55;;;17.20;72.40;;;;;;5076812;28;20112;-75
2021/06/26 01:37:10;;;;;;;12.07;5.93;;;17.20;72.40;;;;;;5076499;28;20035;-75
2021/06/26 01:39:36;;;;;;;9.55;5.13;;;17.10;72.80;;;;;;5076153;28;20502;-75
2021/06/26 01:42:02;;;;;;;15.60;6.90;;;17.20;72.80;;;;;;5076573;28;20029;-74
2021/06/26 01:44:27;;;;;;;13.38;6.63;;;17.10;72.60;;;;;;5071162;28;20036;-74
2021/06/26 01:46:53;;;;;;;12.32;5.72;;;17.20;73.00;;;;;;5076512;28;20055;-74
2021/06/26 01:49:19;;;;;;;13.27;6.30;;;17.10;72.80;;;;;;5074651;28;20103;-74
2021/06/26 01:51:45;;;;;;;12.45;6.30;;;17.10;72.80;;;;;;5075706;28;20847;-74
2021/06/26 01:54:14;;;;;;;12.88;6.63;;;17.10;73.30;;;;;;5074481;28;20403;-74
2021/06/26 01:56:40;;;;;;;14.48;6.80;;;17.10;73.10;;;;;;5074215;28;20036;-75
2021/06/26 01:59:06;;;;;;;14.10;7.30;;;17.10;73.20;;;;;;5076314;28;20055;-75
2021/06/26 02:01:33;;;;;;;13.35;7.00;;;17.10;73.30;;;;;;5076352;28;20024;-75
2021/06/26 02:04:00;;;;;;;12.73;6.75;;;17.10;73.10;;;;;;5075596;28;20033;-74
2021/06/26 02:06:26;;;;;;;11.15;6.45;;;17.10;73.20;;;;;;5077018;28;20031;-74
2021/06/26 02:08:51;;;;;;;11.50;6.25;;;17.10;72.90;;;;;;5074933;28;20032;-73
2021/06/26 02:11:17;;;;;;;12.85;7.00;;;17.00;73.00;;;;;;5076223;28;20033;-75
2021/06/26 02:13:43;;;;;;;12.30;6.05;;;17.00;73.00;;;;;;5076428;28;20115;-74
2021/06/26 02:16:09;;;;;;;13.70;6.63;;;17.00;73.20;;;;;;5076234;28;20048;-74
2021/06/26 02:18:35;;;;;;;13.35;7.13;;;17.00;73.20;;;;;;5076245;28;20429;-74
2021/06/26 02:21:01;;;;;;;13.73;6.70;;;17.00;73.50;;;;;;5076554;28;20021;-74
2021/06/26 02:23:27;;;;;;;10.75;6.32;;;17.00;73.20;;;;;;5077186;28;20028;-74
2021/06/26 02:25:54;;;;;;;12.63;6.78;;;17.00;73.10;;;;;;5076539;28;20017;-74
2021/06/26 02:28:20;;;;;;;12.25;6.35;;;17.00;73.20;;;;;;5078403;28;20046;-74
2021/06/26 02:30:46;;;;;;;10.80;6.97;;;17.00;73.60;;;;;;5080299;28;20498;-74
2021/06/26 02:33:11;;;;;;;14.80;7.15;;;16.90;73.20;;;;;;5079367;28;20032;-74
2021/06/26 02:35:37;;;;;;;14.07;6.68;;;16.90;73.30;;;;;;5080712;28;20028;-74
2021/06/26 02:38:03;;;;;;;14.18;7.18;;;16.90;73.40;;;;;;5080497;28;20635;-75
2021/06/26 02:40:29;;;;;;;14.80;6.85;;;17.00;73.70;;;;;;5079983;28;20028;-74
2021/06/26 02:42:55;;;;;;;14.27;6.80;;;16.90;73.60;;;;;;5078360;28;20031;-74
2021/06/26 02:45:20;;;;;;;11.60;6.15;;;16.90;73.60;;;;;;5077007;28;20032;-74
2021/06/26 02:47:46;;;;;;;14.02;7.25;;;16.90;73.30;;;;;;5079898;28;20552;-74
2021/06/26 02:50:12;;;;;;;13.15;6.43;;;16.90;73.30;;;;;;5079758;28;20024;-75
2021/06/26 02:52:38;;;;;;;17.65;7.07;;;16.90;73.20;;;;;;5080128;28;20024;-74
2021/06/26 02:55:05;;;;;;;15.68;7.20;;;17.00;73.40;;;;;;5079921;28;20479;-74
2021/06/26 02:57:31;;;;;;;14.88;7.13;;;16.90;73.50;;;;;;5078937;28;20021;-75
2021/06/26 02:59:57;;;;;;;11.88;6.95;;;16.90;73.40;;;;;;5080076;28;20017;-75
2021/06/26 03:02:26;;;;;;;13.88;7.18;;;16.90;73.20;;;;;;5079472;28;20040;-74
2021/06/26 03:04:51;;;;;;;14.80;7.38;;;16.90;73.40;;;;;;5080446;28;20102;-74
2021/06/26 03:07:17;;;;;;;14.95;7.38;;;16.90;73.30;;;;;;5080112;28;20028;-74
2021/06/26 03:09:43;;;;;;;12.38;6.95;;;16.90;73.10;;;;;;5080263;28;20497;-74
2021/06/26 03:12:09;;;;;;;12.52;7.35;;;16.90;73.00;;;;;;5079306;28;20051;-74
2021/06/26 03:14:35;;;;;;;13.13;7.75;;;16.90;73.20;;;;;;5078329;28;20024;-74
2021/06/26 03:17:01;;;;;;;12.63;7.13;;;16.80;73.00;;;;;;5076648;28;20442;-75
2021/06/26 03:19:26;;;;;;;13.00;7.95;;;16.90;73.00;;;;;;5078766;28;20021;-74
2021/06/26 03:21:52;;;;;;;16.08;7.45;;;16.80;72.90;;;;;;5079476;28;20025;-74
2021/06/26 03:24:18;;;;;;;11.60;7.68;;;16.80;73.00;;;;;;5079779;28;20048;-74
2021/06/26 03:26:44;;;;;;;14.23;8.10;;;16.80;73.00;;;;;;5079055;28;20478;-74
2021/06/26 03:29:09;;;;;;;14.43;8.30;;;16.80;73.20;;;;;;5080040;28;20424;-74
2021/06/26 03:31:35;;;;;;;14.32;7.68;;;16.80;73.40;;;;;;5079254;28;20115;-74
2021/06/26 03:34:01;;;;;;;14.15;7.38;;;16.80;73.20;;;;;;5079773;28;20382;-74
2021/06/26 03:36:27;;;;;;;13.93;7.70;;;16.70;73.30;;;;;;5079182;28;20025;-74
2021/06/26 03:38:53;;;;;;;12.63;7.63;;;16.70;73.10;;;;;;5077442;28;20024;-75
2021/06/26 03:41:25;;;;;;;12.77;7.88;;;16.70;73.20;;;;;;5078487;28;20081;-74
2021/06/26 03:43:51;;;;;;;14.70;8.20;;;16.70;73.20;;;;;;5076798;28;20017;-74
2021/06/26 03:46:17;;;;;;;11.63;7.55;;;16.70;73.10;;;;;;5078104;28;20044;-74
2021/06/26 03:48:43;;;;;;;11.60;7.30;;;16.60;73.20;;;;;;5078976;28;20066;-74
2021/06/26 03:51:09;;;;;;;11.75;6.63;;;16.70;73.10;;;;;;5075972;28;20020;-74
2021/06/26 03:53:35;;;;;;;11.57;6.70;;;16.60;73.10;;;;;;5078911;28;20029;-74
2021/06/26 03:56:01;;;;;;;12.65;6.90;;;16.60;72.90;;;;;;5078283;28;20047;-75
2021/06/26 03:58:27;;;;;;;12.30;7.28;;;16.60;73.10;;;;;;5077225;28;20035;-74
2021/06/26 04:00:57;;;;;;;13.15;6.90;;;16.60;73.00;;;;;;5077199;28;20028;-75
2021/06/26 04:03:24;;;;;;;13.20;7.65;;;16.60;73.00;;;;;;5078718;28;20017;-74
2021/06/26 04:05:50;;;;;;;12.63;8.20;;;16.60;73.70;;;;;;5079130;28;20036;-74
2021/06/26 04:08:16;;;;;;;11.32;7.55;;;16.60;73.40;;;;;;5078959;28;20025;-74
2021/06/26 04:10:44;;;;;;;12.25;6.97;;;16.50;73.10;;;;;;5078871;28;20071;-74
2021/06/26 04:13:09;;;;;;;16.20;7.25;;;16.50;73.20;;;;;;5078387;28;20107;-74
2021/06/26 04:15:36;;;;;;;10.77;6.70;;;16.50;73.10;;;;;;5077448;28;20083;-74
2021/06/26 04:18:02;;;;;;;11.25;7.45;;;16.50;73.00;;;;;;5078626;28;20024;-74
2021/06/26 04:20:28;;;;;;;13.40;7.72;;;16.50;73.10;;;;;;5078774;28;20021;-74
2021/06/26 04:22:54;;;;;;;10.20;6.50;;;16.50;74.10;;;;;;5078743;28;20027;-74
2021/06/26 04:25:20;;;;;;;13.20;7.68;;;16.50;73.30;;;;;;5078240;28;20031;-74
2021/06/26 04:27:46;;;;;;;14.18;7.72;;;16.50;74.10;;;;;;5078011;28;20032;-74
2021/06/26 04:30:13;;;;;;;11.80;7.38;;;16.50;73.50;;;;;;5078160;28;20028;-74
2021/06/26 04:32:40;;;;;;;14.98;9.35;;;16.50;73.30;;;;;;5078424;28;20099;-75
2021/06/26 04:35:08;;;;;;;14.85;8.50;;;16.50;73.60;;;;;;5077822;28;20029;-74
2021/06/26 04:37:35;;;;;;;13.05;7.13;;;16.50;73.60;;;;;;5075724;28;20032;-74
2021/06/26 04:40:02;;;;;;;13.57;7.78;;;16.50;73.60;;;;;;5074090;28;20066;-74
2021/06/26 04:42:28;;;;;;;13.15;8.02;;;16.50;73.50;;;;;;5076303;28;20048;-74
2021/06/26 04:44:54;;;;;;;12.18;8.52;;;16.50;73.80;;;;;;5077670;28;20028;-74
2021/06/26 04:47:20;;;;;;;14.73;7.30;;;16.50;73.70;;;;;;5077767;28;20055;-74
2021/06/26 04:49:46;;;;;;;13.23;7.50;;;16.50;73.70;;;;;;5074566;28;20025;-74
2021/06/26 04:52:12;;;;;;;12.35;7.13;;;16.40;73.60;;;;;;5077654;28;20455;-74
2021/06/26 04:54:37;;;;;;;14.18;7.95;;;16.50;73.50;;;;;;5076562;28;20629;-74
2021/06/26 04:57:04;;;;;;;16.80;8.05;;;16.50;73.60;;;;;;5075659;28;20542;-74
2021/06/26 04:59:29;;;;;;;12.05;6.78;;;16.40;73.50;;;;;;5077098;28;20044;-74
2021/06/26 05:01:55;;;;;;;12.02;6.63;;;16.50;73.60;;;;;;5076268;28;20040;-74
2021/06/26 05:04:21;;;;;;;13.23;6.90;;;16.50;73.60;;;;;;5077067;28;20039;-74
2021/06/26 05:06:48;;;;;;;13.07;7.47;;;16.50;73.60;;;;;;5077217;28;20037;-75
2021/06/26 05:09:14;;;;;;;10.63;7.00;;;16.50;73.60;;;;;;5077629;28;20474;-74
2021/06/26 05:11:39;;;;;;;13.45;7.70;;;16.50;73.60;;;;;;5076366;28;20024;-74
2021/06/26 05:14:05;;;;;;;11.75;6.63;;;16.50;73.70;;;;;;5077396;28;20104;-74
2021/06/26 05:16:31;;;;;;;12.80;7.68;;;16.50;73.60;;;;;;5077213;28;20040;-74
2021/06/26 05:18:57;;;;;;;11.65;6.93;;;16.50;73.60;;;;;;5075235;28;20036;-74
2021/06/26 05:21:25;;;;;;;12.48;7.70;;;16.50;73.60;;;;;;5076647;28;20478;-75
2021/06/26 05:23:50;;;;;;;11.70;6.97;;;16.50;73.60;;;;;;5077402;28;20039;-74
2021/06/26 05:26:16;;;;;;;11.32;7.38;;;16.50;73.60;;;;;;5077119;28;20413;-74
2021/06/26 05:28:42;;;;;;;10.57;6.90;;;16.50;73.90;;;;;;5076592;28;20131;-74
2021/06/26 05:31:08;;;;;;;11.57;7.03;;;16.50;74.00;;;;;;5074840;28;20031;-74
2021/06/26 05:33:34;;;;;;;10.02;7.18;;;16.50;73.80;;;;;;5077271;28;20066;-74
2021/06/26 05:36:00;;;;;;;13.23;7.28;;;16.50;74.00;;;;;;5077157;28;20033;-74
2021/06/26 05:38:25;;;;;;;12.20;7.47;;;16.50;74.20;;;;;;5075756;28;20025;-75
2021/06/26 05:40:51;;;;;;;11.35;7.13;;;16.50;74.70;;;;;;5075790;28;20032;-74
2021/06/26 05:43:17;;;;;;;13.00;7.82;;;16.50;74.90;;;;;;5074554;28;20016;-74
2021/06/26 05:45:43;;;;;;;11.90;7.90;;;16.50;75.10;;;;;;5075479;28;20414;-73
2021/06/26 05:48:09;;;;;;;19.05;9.57;;;16.50;75.70;;;;;;5075402;28;20020;-75
2021/06/26 05:50:36;;;;;;;16.02;8.68;;;16.50;75.40;;;;;;5074235;28;20119;-77
2021/06/26 05:53:02;;;;;;;14.38;9.23;;;16.50;75.30;;;;;;5075788;28;20020;-69
2021/06/26 05:55:28;;;;;;;16.15;8.90;;;16.50;75.30;;;;;;5075025;28;20028;-68
2021/06/26 05:57:54;;;;;;;13.93;9.00;;;16.60;75.50;;;;;;5076113;28;20555;-68
2021/06/26 06:00:21;;;;;;;17.33;8.23;;;16.60;75.60;;;;;;5075679;28;20071;-68
2021/06/26 06:02:49;;;;;;;15.68;8.60;;;16.60;75.50;;;;;;5072030;28;20020;-69
2021/06/26 06:05:15;;;;;;;11.68;8.55;;;16.60;75.90;;;;;;5075929;28;20025;-74
2021/06/26 06:07:42;;;;;;;16.50;9.52;;;16.60;75.70;;;;;;5075095;28;20130;-72
2021/06/26 06:10:10;;;;;;;13.75;8.57;;;16.70;76.20;;;;;;5074757;28;20032;-72
2021/06/26 06:12:37;;;;;;;13.25;8.57;;;16.70;76.50;;;;;;5075525;28;20021;-72
2021/06/26 06:15:08;;;;;;;12.95;8.38;;;16.70;76.70;;;;;;5075766;28;20024;-72
2021/06/26 06:17:34;;;;;;;14.15;8.88;;;16.70;76.40;;;;;;5075926;28;20119;-72
2021/06/26 06:20:03;;;;;;;12.63;7.75;;;16.80;76.10;;;;;;5074059;28;20056;-71
2021/06/26 06:22:29;;;;;;;12.75;8.23;;;16.80;76.30;;;;;;5076726;28;20028;-71
2021/06/26 06:24:55;;;;;;;12.38;7.65;;;16.80;76.20;;;;;;5076635;28;20078;-72
2021/06/26 06:27:21;;;;;;;13.38;9.73;;;16.80;76.10;;;;;;5076787;28;20032;-71
2021/06/26 06:29:47;;;;;;;14.80;9.07;;;16.80;76.20;;;;;;5076894;28;20025;-72
2021/06/26 06:32:13;;;;;;;18.50;9.85;;;16.80;76.10;;;;;;5077058;28;20146;-72
2021/06/26 06:34:39;;;;;;;14.13;9.07;;;16.80;76.50;;;;;;5076842;28;20024;-72
2021/06/26 06:37:05;;;;;;;16.45;7.95;;;16.90;76.40;;;;;;5076937;28;20032;-72
2021/06/26 06:39:30;;;;;;;17.52;9.25;;;16.90;76.90;;;;;;5076344;28;20013;-72
2021/06/26 06:41:56;;;;;;;14.27;9.85;;;16.90;76.60;;;;;;5064022;28;20539;-72
2021/06/26 06:44:22;;;;;;;15.55;9.77;;;16.90;76.80;;;;;;5076625;28;20025;-72
2021/06/26 06:46:48;;;;;;;16.70;9.88;;;16.90;76.60;;;;;;5076677;28;20036;-72
2021/06/26 06:49:14;;;;;;;15.85;9.77;;;16.90;76.80;;;;;;5076241;28;20052;-71
2021/06/26 06:51:40;;;;;;;19.77;10.07;;;17.00;76.90;;;;;;5074807;28;20036;-73
2021/06/26 06:54:06;;;;;;;15.50;8.90;;;17.10;77.20;;;;;;5073964;28;20020;-73
2021/06/26 06:56:32;;;;;;;17.48;10.32;;;17.10;77.30;;;;;;5073807;28;20089;-73
2021/06/26 06:58:58;;;;;;;17.52;10.45;;;17.20;77.50;;;;;;5075120;28;20017;-73
2021/06/26 07:01:24;;;;;;;16.95;10.60;;;17.20;78.00;;;;;;5078000;28;20028;-72
2021/06/26 07:03:50;;;;;;;17.27;10.65;;;17.30;77.80;;;;;;5075349;28;20016;-73
2021/06/26 07:06:16;;;;;;;16.88;9.95;;;17.30;77.50;;;;;;5075251;28;20545;-73
2021/06/26 07:08:42;;;;;;;17.52;9.63;;;17.30;77.40;;;;;;5074274;28;20055;-73
2021/06/26 07:11:08;;;;;;;14.45;10.48;;;17.30;77.30;;;;;;5074746;28;20033;-73
2021/06/26 07:13:33;;;;;;;17.48;10.65;;;17.40;77.50;;;;;;5076448;28;20048;-73
2021/06/26 07:16:00;;;;;;;18.15;10.35;;;17.30;77.90;;;;;;5078623;28;20051;-73
2021/06/26 07:18:26;;;;;;;17.90;10.38;;;17.40;77.60;;;;;;5077271;28;20021;-73
2021/06/26 07:20:52;;;;;;;15.93;10.00;;;17.30;77.50;;;;;;5078643;28;20495;-73
2021/06/26 07:23:18;;;;;;;16.13;9.93;;;17.30;77.50;;;;;;5078728;28;20036;-73
2021/06/26 07:25:44;;;;;;;15.77;9.85;;;17.30;77.50;;;;;;5078460;28;20031;-72
2021/06/26 07:28:09;;;;;;;16.15;9.57;;;17.20;77.60;;;;;;5079877;28;20036;-72
2021/06/26 07:30:35;;;;;;;14.70;9.35;;;17.20;77.40;;;;;;5078429;28;20566;-72
2021/06/26 07:33:01;;;;;;;15.05;10.05;;;17.20;78.60;;;;;;5078669;28;20039;-72
2021/06/26 07:35:27;;;;;;;16.48;9.40;;;17.20;78.00;;;;;;5079478;28;20037;-72
2021/06/26 07:37:52;;;;;;;15.45;9.13;;;17.20;78.00;;;;;;5079853;28;20375;-72
2021/06/26 07:40:18;;;;;;;16.65;10.35;;;17.20;77.80;;;;;;5079213;28;20028;-72
2021/06/26 07:42:44;;;;;;;15.45;9.63;;;17.20;78.00;;;;;;5079765;28;20013;-72
2021/06/26 07:45:11;;;;;;;16.80;10.18;;;17.30;78.00;;;;;;5078564;28;20494;-72
2021/06/26 07:47:37;;;;;;;18.30;9.73;;;17.30;78.00;;;;;;5079702;28;20027;-72
2021/06/26 07:50:04;;;;;;;17.42;9.25;;;17.30;78.00;;;;;;5079054;28;20032;-72
2021/06/26 07:52:30;;;;;;;13.15;9.10;;;17.30;78.00;;;;;;5074049;28;20155;-72
2021/06/26 07:54:56;;;;;;;13.65;8.40;;;17.30;77.90;;;;;;5078655;28;20057;-72
2021/06/26 07:57:22;;;;;;;13.23;8.00;;;17.30;77.90;;;;;;5079439;28;20025;-72
2021/06/26 07:59:47;;;;;;;13.45;8.27;;;17.30;77.80;;;;;;5077828;28;20031;-72
2021/06/26 08:02:13;;;;;;;12.07;7.68;;;17.30;77.60;;;;;;5078656;28;20043;-72
2021/06/26 08:04:39;;;;;;;10.93;6.97;;;17.30;77.70;;;;;;5078385;28;20020;-72
2021/06/26 08:07:05;;;;;;;12.00;7.80;;;17.30;77.60;;;;;;5079316;28;20437;-72
2021/06/26 08:09:31;;;;;;;12.05;7.32;;;17.20;77.70;;;;;;5078784;28;20032;-72
2021/06/26 08:11:56;;;;;;;11.55;7.40;;;17.20;77.80;;;;;;5079110;28;20024;-72
2021/06/26 08:14:22;;;;;;;14.68;7.68;;;17.20;77.80;;;;;;5078568;28;20505;-72
2021/06/26 08:16:48;;;;;;;13.60;7.75;;;17.20;77.70;;;;;;5078960;28;20182;-72
2021/06/26 08:19:14;;;;;;;12.93;7.30;;;17.20;77.70;;;;;;5078004;28;20099;-72
2021/06/26 08:21:41;;;;;;;15.15;8.35;;;17.20;77.80;;;;;;5078719;28;20025;-72
2021/06/26 08:24:07;;;;;;;9.73;6.30;;;17.20;77.50;;;;;;5078060;28;20031;-73
2021/06/26 08:26:34;;;;;;;11.20;6.78;;;17.30;77.50;;;;;;5078407;28;20550;-73
2021/06/26 08:29:00;;;;;;;10.70;7.10;;;17.20;77.40;;;;;;5078217;28;20025;-73
2021/06/26 08:31:26;;;;;;;11.13;6.90;;;17.20;77.70;;;;;;5078854;28;20032;-72
2021/06/26 08:33:52;;;;;;;12.88;7.32;;;17.20;77.80;;;;;;5078465;28;20099;-73
2021/06/26 08:36:17;;;;;;;9.85;6.07;;;17.30;78.00;;;;;;5078814;28;20071;-72
2021/06/26 08:38:43;;;;;;;10.50;6.00;;;17.30;78.00;;;;;;5077812;28;20023;-72
2021/06/26 08:41:11;;;;;;;9.93;5.40;;;17.30;78.00;;;;;;5077970;28;20052;-73
2021/06/26 08:43:37;;;;;;;9.18;5.40;;;17.30;77.90;;;;;;5076982;28;20109;-73
2021/06/26 08:46:03;;;;;;;8.20;4.95;;;17.30;78.10;;;;;;5077574;28;20032;-72
2021/06/26 08:48:29;;;;;;;7.93;4.72;;;17.40;77.90;;;;;;5078292;28;20025;-72
2021/06/26 08:50:56;;;;;;;9.88;6.00;;;17.40;78.00;;;;;;5078348;28;20028;-72
2021/06/26 08:53:21;;;;;;;10.52;5.35;;;17.30;78.30;;;;;;5078061;28;20074;-73
2021/06/26 08:55:52;;;;;;;8.45;5.18;;;17.30;78.80;;;;;;5077980;28;20029;-73
2021/06/26 08:58:18;;;;;;;8.25;4.72;;;17.40;79.30;;;;;;5065440;28;20020;-72
2021/06/26 09:00:44;;;;;;;8.27;4.60;;;17.40;78.60;;;;;;5077907;28;20025;-73
2021/06/26 09:03:12;;;;;;;6.35;4.32;;;17.40;78.60;;;;;;5078002;28;20414;-73
2021/06/26 09:05:39;;;;;;;9.40;6.00;;;17.40;78.60;;;;;;5077934;28;20487;-73
2021/06/26 09:08:10;;;;;;;8.45;4.63;;;17.50;78.90;;;;;;5078110;28;20025;-73
2021/06/26 09:10:37;;;;;;;7.82;4.65;;;17.50;79.10;;;;;;5075963;28;20040;-73
2021/06/26 09:13:24;;;;;;;6.35;4.35;;;17.60;79.20;;;;;;5078066;28;20021;-73
2021/06/26 09:16:02;;;;;;;7.95;3.40;;;17.70;80.20;;;;;;5066222;28;20044;-72
2021/06/26 09:18:28;;;;;;;6.30;3.50;;;17.70;79.60;;;;;;5077212;28;20025;-73
2021/06/26 09:20:55;;;;;;;6.00;3.60;;;17.80;79.60;;;;;;5076917;28;20077;-73
2021/06/26 09:23:33;;;;;;;7.80;3.60;;;17.80;79.60;;;;;;5076562;28;20016;-73
2021/06/26 09:26:11;;;;;;;6.10;3.22;;;17.90;79.70;;;;;;5076713;28;20119;-73
2021/06/26 09:28:38;;;;;;;6.63;3.55;;;18.00;79.90;;;;;;5076479;28;20501;-73
2021/06/26 09:31:13;;;;;;;8.13;3.63;;;18.10;80.00;;;;;;5077381;28;20442;-72
2021/06/26 09:33:39;;;;;;;5.03;3.13;;;18.10;80.00;;;;;;5076409;28;20029;-73
2021/06/26 09:36:11;;;;;;;5.85;2.95;;;18.20;79.90;;;;;;5077025;28;20103;-73
2021/06/26 09:38:53;;;;;;;;;;;18.20;79.90;;;;;;5077632;28;20031;-73
2021/06/26 09:41:19;;;;;;;8.02;3.83;;;18.20;79.90;;;;;;5076535;28;19909;-73
2021/06/26 09:43:45;;;;;;;5.97;3.40;;;18.30;79.90;;;;;;5077369;28;20032;-73
2021/06/26 09:46:16;;;;;;;6.88;3.75;;;18.30;79.80;;;;;;5076708;28;20383;-72
2021/06/26 09:48:52;;;;;;;7.20;3.97;;;18.30;79.80;;;;;;5076955;28;20378;-72
2021/06/26 09:51:30;;;;;;;6.15;3.50;;;18.30;79.80;;;;;;5075616;28;20478;-72
2021/06/26 09:53:59;;;;;;;6.15;2.83;;;18.30;79.90;;;;;;5076500;28;20063;-73
2021/06/26 09:56:43;;;;;;;6.55;3.17;;;18.30;79.70;;;;;;5076812;28;20021;-73
2021/06/26 09:59:10;;;;;;;6.97;2.92;;;18.40;79.80;;;;;;5077208;28;20135;-73
2021/06/26 10:01:40;;;;;;;4.97;2.97;;;18.50;79.90;;;;;;5077019;28;20017;-73
2021/06/26 10:04:06;;;;;;;5.72;3.13;;;18.50;79.70;;;;;;5076918;28;20078;-73
2021/06/26 10:06:34;;;;;;;6.68;3.47;;;18.50;79.60;;;;;;5076635;28;20024;-73
2021/06/26 10:09:04;;;;;;;5.55;2.70;;;18.50;79.80;;;;;;5076385;28;20036;-73
2021/06/26 10:11:32;;;;;;;5.80;2.78;;;18.50;79.70;;;;;;5075859;28;20103;-73
2021/06/26 10:14:01;;;;;;;5.20;2.00;;;18.40;79.30;;;;;;5073669;28;20060;-73
2021/06/26 10:16:29;;;;;;;5.47;1.80;;;18.40;79.50;;;;;;5075589;28;20033;-73
2021/06/26 10:19:01;;;;;;;3.92;2.15;;;18.30;79.40;;;;;;5075871;28;20029;-73
2021/06/26 10:21:28;;;;;;;4.13;2.30;;;18.30;79.10;;;;;;5076289;28;20016;-73
2021/06/26 10:23:57;;;;;;;2.65;1.30;;;18.20;79.30;;;;;;5076740;28;20031;-73
2021/06/26 10:26:24;;;;;;;2.25;1.08;;;18.20;78.90;;;;;;5077210;28;20021;-73
2021/06/26 10:28:53;;;;;;;3.88;1.10;;;18.20;78.60;;;;;;5075707;28;20123;-73
2021/06/26 10:31:42;;;;;;;3.85;1.50;;;18.10;78.60;;;;;;5075993;28;20543;-72
2021/06/26 10:34:19;;;;;;;6.75;1.60;;;18.20;78.40;;;;;;5076546;28;20056;-72
2021/06/26 10:36:54;;;;;;;3.65;1.10;;;18.10;78.40;;;;;;5076415;28;20115;-72
2021/06/26 10:39:21;;;;;;;4.13;1.30;;;18.10;78.20;;;;;;5076120;28;20429;-72
2021/06/26 10:42:03;;;;;;;3.08;1.20;;;18.10;78.40;;;;;;5076414;28;20044;-72
2021/06/26 10:44:59;;;;;;;3.50;1.30;;;18.10;78.40;;;;;;5076582;28;20024;-72
2021/06/26 10:47:39;;;;;;;3.85;1.88;;;18.20;78.70;;;;;;5067412;28;20116;-72
2021/06/26 10:50:23;;;;;;;3.85;1.55;;;18.20;78.60;;;;;;5077250;28;20030;-72
2021/06/26 10:52:56;;;;;;;4.35;1.90;;;18.30;78.80;;;;;;5079767;28;20032;-72
2021/06/26 10:55:37;;;;;;;3.80;2.08;;;18.40;79.00;;;;;;5077020;28;20093;-72
2021/06/26 10:58:05;;;;;;;3.45;1.50;;;18.40;79.30;;;;;;5078813;28;20021;-72
2021/06/26 11:00:37;;;;;;;4.18;1.20;;;18.50;79.40;;;;;;5079886;28;20487;-73
2021/06/26 11:03:04;;;;;;;3.45;0.85;;;18.60;78.70;;;;;;5080392;28;20052;-72
2021/06/26 11:05:37;;;;;;;2.55;0.80;;;18.60;78.30;;;;;;5080027;28;20062;-72
2021/06/26 11:08:16;;;;;;;1.92;0.60;;;18.60;78.10;;;;;;5079846;28;20033;-72
2021/06/26 11:11:00;;;;;;;3.00;0.82;;;18.60;77.80;;;;;;5078943;28;20024;-72
2021/06/26 11:13:28;;;;;;;2.67;1.00;;;18.70;78.70;;;;;;5076557;28;20016;-72
2021/06/26 11:16:10;;;;;;;4.35;1.40;;;18.70;78.10;;;;;;5078392;28;20076;-73
2021/06/26 11:18:36;;;;;;;3.10;1.25;;;18.80;79.20;;;;;;5076195;28;20029;-75
2021/06/26 11:21:03;;;;;;;3.50;1.00;;;18.80;79.30;;;;;;5080992;28;20035;-76
2021/06/26 11:23:29;;;;;;;2.25;0.77;;;18.80;79.60;;;;;;5080251;28;20070;-71
2021/06/26 11:26:03;;;;;;;3.65;1.00;;;18.80;79.70;;;;;;5078577;28;20032;-72
2021/06/26 11:28:29;;;;;;;1.88;0.80;;;18.80;79.80;;;;;;5080205;28;20035;-72
2021/06/26 11:31:02;;;;;;;4.10;1.00;;;18.80;79.80;;;;;;5080163;28;20024;-74
2021/06/26 11:33:32;;;;;;;1.80;0.70;;;18.80;79.40;;;;;;5079988;28;20060;-76
2021/06/26 11:35:59;;;;;;;1.98;1.00;;;18.80;79.10;;;;;;5079692;28;20107;-73
2021/06/26 11:38:26;;;;;;;2.85;0.77;;;18.80;78.80;;;;;;5079243;28;20029;-75
2021/06/26 11:41:11;;;;;;;2.90;1.20;;;18.80;78.90;;;;;;5079548;28;20055;-74
2021/06/26 11:43:46;;;;;;;2.17;0.70;;;18.90;79.00;;;;;;5077761;28;20024;-76
2021/06/26 11:46:12;;;;;;;2.03;0.80;;;18.90;79.00;;;;;;5071906;28;20021;-76
2021/06/26 11:48:38;;;;;;;3.40;1.00;;;18.90;78.70;;;;;;5075427;28;20050;-74
2021/06/26 11:51:06;;;;;;;2.97;1.00;;;18.90;78.80;;;;;;5072293;28;20033;-78
2021/06/26 11:53:37;;;;;;;2.70;1.00;;;19.00;78.70;;;;;;5067001;28;20025;-78
2021/06/26 11:56:04;;;;;;;4.65;1.50;;;19.00;78.80;;;;;;5077591;28;20029;-78
2021/06/26 11:58:44;;;;;;;4.00;1.60;;;19.00;78.70;;;;;;5091774;28;20071;-77
2021/06/26 12:01:25;;;;;;;4.38;1.80;;;19.00;78.60;;;;;;5078098;28;20020;-75
2021/06/26 12:03:52;;;;;;;4.20;2.00;;;19.00;78.40;;;;;;5077756;28;20036;-75
2021/06/26 12:06:18;;;;;;;3.67;1.35;;;18.90;78.50;;;;;;5078842;28;20082;-76
2021/06/26 12:08:51;;;;;;;5.93;1.70;;;18.90;78.40;;;;;;5078979;28;20040;-71
2021/06/26 12:11:28;;;;;;;4.63;1.50;;;18.90;78.30;;;;;;5077434;28;20035;-75
2021/06/26 12:14:01;;;;;;;3.58;1.17;;;18.80;78.30;;;;;;5077717;28;20028;-79
2021/06/26 12:16:35;;;;;;;3.35;1.10;;;18.80;78.00;;;;;;5075140;28;20051;-77
2021/06/26 12:19:08;;;;;;;4.90;1.40;;;18.70;77.90;;;;;;5070195;28;20035;-79
2021/06/26 12:21:42;;;;;;;2.85;1.33;;;18.70;78.30;;;;;;5076036;28;20039;-76
2021/06/26 12:24:09;;;;;;;4.75;1.60;;;18.70;78.00;;;;;;5076592;28;20142;-74
2021/06/26 12:26:35;;;;;;;4.43;1.65;;;18.70;78.20;;;;;;5077588;28;20036;-77
2021/06/26 12:29:01;;;;;;;3.53;1.30;;;18.70;78.30;;;;;;5078534;28;20518;-77
2021/06/26 12:31:27;;;;;;;2.72;1.05;;;18.80;78.40;;;;;;5079026;28;20399;-77
2021/06/26 12:34:06;;;;;;;1.95;0.70;;;18.80;78.50;;;;;;5078700;28;20033;-77
2021/06/26 12:36:32;;;;;;;3.30;1.10;;;18.80;78.30;;;;;;5078898;28;20471;-77
2021/06/26 12:39:00;;;;;;;2.60;0.70;;;18.80;78.00;;;;;;5078543;28;20071;-77
2021/06/26 12:41:28;;;;;;;1.42;0.63;;;18.80;77.90;;;;;;5078404;28;20060;-77
2021/06/26 12:43:55;;;;;;;2.10;0.98;;;18.80;77.90;;;;;;5078623;28;20391;-77